sensor_id;sensor_type;location;lat;lon;timestamp;P1;durP1;ratioP1;P2;durP2;ratioP2
40599;SDS011;26309;50.924;4.754;2023-07-31T05:14:21;14.63;;;6.28;;
40599;SDS011;26309;50.924;4.754;2023-07-31T05:16:46;13.55;;;6.00;;
40599;SDS011;26309;50.924;4.754;2023-07-31T05:19:12;11.52;;;5.88;;
40599;SDS011;26309;50.924;4.754;2023-07-31T05:21:38;11.82;;;6.05;;
40599;SDS011;26309;50.924;4.754;2023-07-31T05:24:04;11.65;;;6.00;;
40599;SDS011;26309;50.924;4.754;2023-07-31T05:26:30;10.32;;;5.25;;
40599;SDS011;26309;50.924;4.754;2023-07-31T05:28:57;14.80;;;5.80;;
40599;SDS011;26309;50.924;4.754;2023-07-31T05:31:23;14.07;;;6.20;;
40599;SDS011;26309;50.924;4.754;2023-07-31T05:33:49;12.35;;;5.80;;
40599;SDS011;26309;50.924;4.754;2023-07-31T05:36:16;11.75;;;5.47;;
40599;SDS011;26309;50.924;4.754;2023-07-31T05:38:42;7.63;;;5.60;;
40599;SDS011;26309;50.924;4.754;2023-07-31T05:41:11;9.13;;;5.60;;
40599;SDS011;26309;50.924;4.754;2023-07-31T05:43:38;11.23;;;5.80;;
40599;SDS011;26309;50.924;4.754;2023-07-31T05:46:04;12.23;;;6.05;;
40599;SDS011;26309;50.924;4.754;2023-07-31T05:48:29;9.95;;;5.97;;
40599;SDS011;26309;50.924;4.754;2023-07-31T05:50:55;13.65;;;6.03;;
40599;SDS011;26309;50.924;4.754;2023-07-31T05:53:21;9.45;;;5.68;;
40599;SDS011;26309;50.924;4.754;2023-07-31T05:55:47;12.57;;;6.25;;
40599;SDS011;26309;50.924;4.754;2023-07-31T05:58:13;12.35;;;6.28;;
40599;SDS011;26309;50.924;4.754;2023-07-31T06:00:39;12.63;;;6.10;;
40599;SDS011;26309;50.924;4.754;2023-07-31T06:03:06;13.27;;;5.72;;
40599;SDS011;26309;50.924;4.754;2023-07-31T06:05:31;8.50;;;5.68;;
40599;SDS011;26309;50.924;4.754;2023-07-31T06:07:57;9.65;;;5.30;;
40599;SDS011;26309;50.924;4.754;2023-07-31T06:10:23;8.95;;;5.75;;
40599;SDS011;26309;50.924;4.754;2023-07-31T06:12:49;14.43;;;5.88;;
40599;SDS011;26309;50.924;4.754;2023-07-31T06:15:15;9.48;;;5.65;;
40599;SDS011;26309;50.924;4.754;2023-07-31T06:17:43;10.98;;;5.90;;
40599;SDS011;26309;50.924;4.754;2023-07-31T06:20:09;11.38;;;5.88;;
40599;SDS011;26309;50.924;4.754;2023-07-31T06:22:36;11.82;;;5.65;;
40599;SDS011;26309;50.924;4.754;2023-07-31T06:25:02;13.43;;;5.95;;
40599;SDS011;26309;50.924;4.754;2023-07-31T06:27:28;10.13;;;5.47;;
40599;SDS011;26309;50.924;4.754;2023-07-31T06:29:54;10.85;;;5.53;;
40599;SDS011;26309;50.924;4.754;2023-07-31T06:32:20;8.35;;;5.57;;
40599;SDS011;26309;50.924;4.754;2023-07-31T06:34:46;12.43;;;5.75;;
40599;SDS011;26309;50.924;4.754;2023-07-31T06:37:11;11.80;;;5.43;;
40599;SDS011;26309;50.924;4.754;2023-07-31T06:39:38;12.38;;;6.03;;
40599;SDS011;26309;50.924;4.754;2023-07-31T06:42:04;9.60;;;5.18;;
40599;SDS011;26309;50.924;4.754;2023-07-31T06:44:30;13.07;;;5.55;;
40599;SDS011;26309;50.924;4.754;2023-07-31T06:46:57;12.55;;;5.63;;
40599;SDS011;26309;50.924;4.754;2023-07-31T06:49:23;10.57;;;5.50;;
40599;SDS011;26309;50.924;4.754;2023-07-31T06:51:49;10.18;;;5.35;;
40599;SDS011;26309;50.924;4.754;2023-07-31T06:54:15;9.00;;;5.00;;
40599;SDS011;26309;50.924;4.754;2023-07-31T06:56:41;11.05;;;5.28;;
40599;SDS011;26309;50.924;4.754;2023-07-31T06:59:07;10.15;;;5.00;;
40599;SDS011;26309;50.924;4.754;2023-07-31T07:01:33;11.90;;;5.38;;
40599;SDS011;26309;50.924;4.754;2023-07-31T07:03:59;12.57;;;5.15;;
40599;SDS011;26309;50.924;4.754;2023-07-31T07:06:25;10.82;;;4.82;;
40599;SDS011;26309;50.924;4.754;2023-07-31T07:08:51;12.30;;;5.47;;
40599;SDS011;26309;50.924;4.754;2023-07-31T07:11:17;11.25;;;5.78;;
40599;SDS011;26309;50.924;4.754;2023-07-31T07:13:42;9.90;;;4.22;;
40599;SDS011;26309;50.924;4.754;2023-07-31T07:16:08;8.68;;;5.35;;
40599;SDS011;26309;50.924;4.754;2023-07-31T07:18:35;14.35;;;5.60;;
40599;SDS011;26309;50.924;4.754;2023-07-31T07:21:01;13.07;;;5.10;;
40599;SDS011;26309;50.924;4.754;2023-07-31T07:23:28;9.98;;;5.30;;
40599;SDS011;26309;50.924;4.754;2023-07-31T07:25:53;11.27;;;5.07;;
40599;SDS011;26309;50.924;4.754;2023-07-31T07:28:19;6.75;;;4.40;;
40599;SDS011;26309;50.924;4.754;2023-07-31T07:30:50;12.45;;;4.70;;
40599;SDS011;26309;50.924;4.754;2023-07-31T07:33:17;9.65;;;4.78;;
40599;SDS011;26309;50.924;4.754;2023-07-31T07:35:43;8.85;;;4.38;;
40599;SDS011;26309;50.924;4.754;2023-07-31T07:38:09;9.07;;;5.00;;
40599;SDS011;26309;50.924;4.754;2023-07-31T07:40:38;6.75;;;4.25;;
40599;SDS011;26309;50.924;4.754;2023-07-31T07:43:05;7.57;;;4.47;;
40599;SDS011;26309;50.924;4.754;2023-07-31T07:45:31;8.88;;;4.35;;
40599;SDS011;26309;50.924;4.754;2023-07-31T07:47:57;7.75;;;4.57;;
40599;SDS011;26309;50.924;4.754;2023-07-31T07:50:27;6.40;;;4.38;;
40599;SDS011;26309;50.924;4.754;2023-07-31T07:52:53;13.60;;;4.78;;
40599;SDS011;26309;50.924;4.754;2023-07-31T07:55:19;11.45;;;4.65;;
40599;SDS011;26309;50.924;4.754;2023-07-31T07:57:44;10.48;;;4.57;;
40599;SDS011;26309;50.924;4.754;2023-07-31T08:00:12;9.93;;;4.72;;
40599;SDS011;26309;50.924;4.754;2023-07-31T08:02:38;6.60;;;4.53;;
40599;SDS011;26309;50.924;4.754;2023-07-31T08:05:05;6.70;;;4.50;;
40599;SDS011;26309;50.924;4.754;2023-07-31T08:07:31;8.38;;;4.03;;
40599;SDS011;26309;50.924;4.754;2023-07-31T08:09:57;7.88;;;4.20;;
40599;SDS011;26309;50.924;4.754;2023-07-31T08:12:23;8.13;;;4.10;;
40599;SDS011;26309;50.924;4.754;2023-07-31T08:14:48;6.05;;;4.10;;
40599;SDS011;26309;50.924;4.754;2023-07-31T08:17:14;9.70;;;4.38;;
40599;SDS011;26309;50.924;4.754;2023-07-31T08:19:40;8.93;;;4.00;;
40599;SDS011;26309;50.924;4.754;2023-07-31T08:22:06;8.75;;;4.30;;
40599;SDS011;26309;50.924;4.754;2023-07-31T08:24:32;8.02;;;4.40;;
40599;SDS011;26309;50.924;4.754;2023-07-31T08:26:58;6.80;;;3.85;;
40599;SDS011;26309;50.924;4.754;2023-07-31T08:29:27;8.52;;;3.88;;
40599;SDS011;26309;50.924;4.754;2023-07-31T08:31:52;6.47;;;3.92;;
40599;SDS011;26309;50.924;4.754;2023-07-31T08:34:19;5.90;;;3.90;;
40599;SDS011;26309;50.924;4.754;2023-07-31T08:36:47;6.22;;;3.90;;
40599;SDS011;26309;50.924;4.754;2023-07-31T08:39:17;8.82;;;3.60;;
40599;SDS011;26309;50.924;4.754;2023-07-31T08:41:43;7.22;;;3.50;;
40599;SDS011;26309;50.924;4.754;2023-07-31T08:44:11;6.97;;;3.55;;
40599;SDS011;26309;50.924;4.754;2023-07-31T08:46:39;6.38;;;3.80;;
40599;SDS011;26309;50.924;4.754;2023-07-31T08:49:05;8.13;;;3.92;;
40599;SDS011;26309;50.924;4.754;2023-07-31T08:51:37;5.25;;;3.25;;
40599;SDS011;26309;50.924;4.754;2023-07-31T08:54:03;5.05;;;3.08;;
40599;SDS011;26309;50.924;4.754;2023-07-31T08:56:29;7.13;;;3.05;;
40599;SDS011;26309;50.924;4.754;2023-07-31T08:59:02;6.15;;;3.30;;
40599;SDS011;26309;50.924;4.754;2023-07-31T09:01:29;5.15;;;3.25;;
40599;SDS011;26309;50.924;4.754;2023-07-31T09:03:59;6.32;;;3.10;;
40599;SDS011;26309;50.924;4.754;2023-07-31T09:06:28;6.78;;;3.17;;
40599;SDS011;26309;50.924;4.754;2023-07-31T09:08:55;6.28;;;2.88;;
40599;SDS011;26309;50.924;4.754;2023-07-31T09:11:21;8.80;;;3.72;;
40599;SDS011;26309;50.924;4.754;2023-07-31T09:13:49;8.13;;;3.55;;
40599;SDS011;26309;50.924;4.754;2023-07-31T09:16:15;5.32;;;3.20;;
40599;SDS011;26309;50.924;4.754;2023-07-31T09:19:02;7.25;;;3.38;;
40599;SDS011;26309;50.924;4.754;2023-07-31T09:21:28;4.05;;;3.17;;
40599;SDS011;26309;50.924;4.754;2023-07-31T09:23:55;7.35;;;3.63;;
40599;SDS011;26309;50.924;4.754;2023-07-31T09:26:32;5.60;;;3.20;;
40599;SDS011;26309;50.924;4.754;2023-07-31T09:29:04;5.70;;;3.50;;
40599;SDS011;26309;50.924;4.754;2023-07-31T09:34:03;5.32;;;3.53;;
40599;SDS011;26309;50.924;4.754;2023-07-31T09:36:29;5.95;;;3.33;;
40599;SDS011;26309;50.924;4.754;2023-07-31T09:38:57;6.15;;;3.35;;
40599;SDS011;26309;50.924;4.754;2023-07-31T09:41:28;4.70;;;3.85;;
40599;SDS011;26309;50.924;4.754;2023-07-31T09:43:54;8.35;;;3.70;;
40599;SDS011;26309;50.924;4.754;2023-07-31T09:46:20;5.72;;;3.50;;
40599;SDS011;26309;50.924;4.754;2023-07-31T09:48:49;9.15;;;4.13;;
40599;SDS011;26309;50.924;4.754;2023-07-31T09:51:15;5.78;;;3.80;;
40599;SDS011;26309;50.924;4.754;2023-07-31T09:53:41;6.03;;;3.63;;
40599;SDS011;26309;50.924;4.754;2023-07-31T09:56:14;6.35;;;3.42;;
40599;SDS011;26309;50.924;4.754;2023-07-31T09:58:48;6.80;;;3.67;;
40599;SDS011;26309;50.924;4.754;2023-07-31T10:01:30;7.45;;;4.20;;
40599;SDS011;26309;50.924;4.754;2023-07-31T10:04:12;6.30;;;3.78;;
40599;SDS011;26309;50.924;4.754;2023-07-31T10:06:46;7.18;;;3.83;;
40599;SDS011;26309;50.924;4.754;2023-07-31T10:09:15;6.03;;;3.45;;
40599;SDS011;26309;50.924;4.754;2023-07-31T10:11:47;8.38;;;3.53;;
40599;SDS011;26309;50.924;4.754;2023-07-31T10:14:19;8.18;;;3.60;;
40599;SDS011;26309;50.924;4.754;2023-07-31T10:16:47;5.35;;;3.65;;
40599;SDS011;26309;50.924;4.754;2023-07-31T10:19:13;7.65;;;4.05;;
40599;SDS011;26309;50.924;4.754;2023-07-31T10:21:39;6.75;;;3.80;;
40599;SDS011;26309;50.924;4.754;2023-07-31T10:24:07;8.63;;;3.97;;
40599;SDS011;26309;50.924;4.754;2023-07-31T10:26:34;10.45;;;4.82;;
40599;SDS011;26309;50.924;4.754;2023-07-31T10:29:06;7.05;;;4.00;;
40599;SDS011;26309;50.924;4.754;2023-07-31T10:31:43;6.38;;;4.00;;
40599;SDS011;26309;50.924;4.754;2023-07-31T10:34:42;7.88;;;4.43;;
40599;SDS011;26309;50.924;4.754;2023-07-31T10:39:55;9.45;;;3.95;;
40599;SDS011;26309;50.924;4.754;2023-07-31T10:42:27;8.68;;;5.13;;
40599;SDS011;26309;50.924;4.754;2023-07-31T10:45:00;11.20;;;4.32;;
40599;SDS011;26309;50.924;4.754;2023-07-31T10:47:36;10.75;;;4.25;;
40599;SDS011;26309;50.924;4.754;2023-07-31T10:50:18;5.90;;;4.30;;
40599;SDS011;26309;50.924;4.754;2023-07-31T10:52:47;8.38;;;4.60;;
40599;SDS011;26309;50.924;4.754;2023-07-31T10:57:55;10.82;;;5.10;;
40599;SDS011;26309;50.924;4.754;2023-07-31T11:00:30;10.55;;;4.95;;
40599;SDS011;26309;50.924;4.754;2023-07-31T11:06:07;12.90;;;4.85;;
40599;SDS011;26309;50.924;4.754;2023-07-31T11:08:29;8.48;;;4.93;;
40599;SDS011;26309;50.924;4.754;2023-07-31T11:13:28;10.10;;;5.18;;
40599;SDS011;26309;50.924;4.754;2023-07-31T11:15:55;11.80;;;4.55;;
40599;SDS011;26309;50.924;4.754;2023-07-31T11:18:21;11.52;;;5.30;;
40599;SDS011;26309;50.924;4.754;2023-07-31T11:20:47;9.00;;;5.43;;
40599;SDS011;26309;50.924;4.754;2023-07-31T11:23:15;8.48;;;4.80;;
40599;SDS011;26309;50.924;4.754;2023-07-31T11:25:42;10.63;;;5.03;;
40599;SDS011;26309;50.924;4.754;2023-07-31T11:28:09;11.27;;;5.07;;
40599;SDS011;26309;50.924;4.754;2023-07-31T11:30:36;10.75;;;4.95;;
40599;SDS011;26309;50.924;4.754;2023-07-31T11:33:03;8.27;;;4.72;;
40599;SDS011;26309;50.924;4.754;2023-07-31T11:35:31;9.30;;;4.82;;
40599;SDS011;26309;50.924;4.754;2023-07-31T11:37:59;11.02;;;4.75;;
40599;SDS011;26309;50.924;4.754;2023-07-31T11:40:25;10.38;;;4.85;;
40599;SDS011;26309;50.924;4.754;2023-07-31T11:42:58;10.18;;;5.30;;
40599;SDS011;26309;50.924;4.754;2023-07-31T11:45:29;10.02;;;4.75;;
40599;SDS011;26309;50.924;4.754;2023-07-31T11:47:56;10.73;;;5.40;;
40599;SDS011;26309;50.924;4.754;2023-07-31T11:50:23;10.38;;;4.90;;
40599;SDS011;26309;50.924;4.754;2023-07-31T11:52:59;9.82;;;5.07;;
40599;SDS011;26309;50.924;4.754;2023-07-31T11:55:32;10.35;;;4.85;;
40599;SDS011;26309;50.924;4.754;2023-07-31T11:58:01;8.27;;;4.85;;
40599;SDS011;26309;50.924;4.754;2023-07-31T12:00:27;9.48;;;4.78;;
40599;SDS011;26309;50.924;4.754;2023-07-31T12:02:53;14.30;;;5.57;;
40599;SDS011;26309;50.924;4.754;2023-07-31T12:05:21;8.93;;;4.63;;
40599;SDS011;26309;50.924;4.754;2023-07-31T12:07:51;11.50;;;5.30;;
40599;SDS011;26309;50.924;4.754;2023-07-31T12:10:23;10.77;;;4.50;;
40599;SDS011;26309;50.924;4.754;2023-07-31T12:15:39;9.65;;;4.68;;
40599;SDS011;26309;50.924;4.754;2023-07-31T12:18:13;7.40;;;4.97;;
40599;SDS011;26309;50.924;4.754;2023-07-31T12:20:42;11.07;;;4.65;;
40599;SDS011;26309;50.924;4.754;2023-07-31T12:23:12;9.35;;;5.00;;
40599;SDS011;26309;50.924;4.754;2023-07-31T12:25:40;8.50;;;4.30;;
40599;SDS011;26309;50.924;4.754;2023-07-31T12:28:06;10.32;;;5.13;;
40599;SDS011;26309;50.924;4.754;2023-07-31T12:30:36;9.75;;;4.68;;
40599;SDS011;26309;50.924;4.754;2023-07-31T12:33:04;8.77;;;4.70;;
40599;SDS011;26309;50.924;4.754;2023-07-31T12:35:36;10.55;;;4.65;;
40599;SDS011;26309;50.924;4.754;2023-07-31T12:38:03;10.93;;;5.05;;
40599;SDS011;26309;50.924;4.754;2023-07-31T12:40:29;11.15;;;4.93;;
40599;SDS011;26309;50.924;4.754;2023-07-31T12:42:55;9.57;;;4.35;;
40599;SDS011;26309;50.924;4.754;2023-07-31T12:45:21;10.30;;;4.75;;
40599;SDS011;26309;50.924;4.754;2023-07-31T12:47:48;12.05;;;5.03;;
40599;SDS011;26309;50.924;4.754;2023-07-31T12:50:15;9.13;;;5.22;;
40599;SDS011;26309;50.924;4.754;2023-07-31T12:52:41;7.43;;;4.47;;
40599;SDS011;26309;50.924;4.754;2023-07-31T12:55:07;12.68;;;4.90;;
40599;SDS011;26309;50.924;4.754;2023-07-31T12:57:33;12.45;;;5.53;;
40599;SDS011;26309;50.924;4.754;2023-07-31T12:59:58;9.15;;;4.95;;
40599;SDS011;26309;50.924;4.754;2023-07-31T13:02:24;11.73;;;5.25;;
40599;SDS011;26309;50.924;4.754;2023-07-31T13:04:50;9.90;;;5.00;;
40599;SDS011;26309;50.924;4.754;2023-07-31T13:07:16;8.55;;;4.85;;
40599;SDS011;26309;50.924;4.754;2023-07-31T13:09:42;10.27;;;4.85;;
40599;SDS011;26309;50.924;4.754;2023-07-31T13:12:08;8.95;;;5.00;;
40599;SDS011;26309;50.924;4.754;2023-07-31T13:14:34;9.95;;;5.32;;
40599;SDS011;26309;50.924;4.754;2023-07-31T13:16:59;9.45;;;4.85;;
40599;SDS011;26309;50.924;4.754;2023-07-31T13:19:25;11.07;;;5.55;;
40599;SDS011;26309;50.924;4.754;2023-07-31T13:21:51;10.63;;;5.25;;
40599;SDS011;26309;50.924;4.754;2023-07-31T13:24:17;7.00;;;4.90;;
40599;SDS011;26309;50.924;4.754;2023-07-31T13:26:43;9.65;;;5.03;;
40599;SDS011;26309;50.924;4.754;2023-07-31T13:29:09;7.93;;;4.97;;
40599;SDS011;26309;50.924;4.754;2023-07-31T13:31:36;12.60;;;5.72;;
40599;SDS011;26309;50.924;4.754;2023-07-31T13:34:01;12.95;;;5.65;;
40599;SDS011;26309;50.924;4.754;2023-07-31T13:36:27;8.32;;;5.03;;
40599;SDS011;26309;50.924;4.754;2023-07-31T13:38:53;13.60;;;5.10;;
40599;SDS011;26309;50.924;4.754;2023-07-31T13:41:19;10.38;;;5.03;;
40599;SDS011;26309;50.924;4.754;2023-07-31T13:43:45;8.27;;;4.50;;
40599;SDS011;26309;50.924;4.754;2023-07-31T13:46:11;11.32;;;5.00;;
40599;SDS011;26309;50.924;4.754;2023-07-31T13:48:37;7.32;;;4.97;;
40599;SDS011;26309;50.924;4.754;2023-07-31T13:51:06;8.70;;;4.85;;
40599;SDS011;26309;50.924;4.754;2023-07-31T13:53:32;12.20;;;4.97;;
40599;SDS011;26309;50.924;4.754;2023-07-31T13:55:58;9.57;;;5.18;;
40599;SDS011;26309;50.924;4.754;2023-07-31T13:58:26;9.63;;;5.03;;
40599;SDS011;26309;50.924;4.754;2023-07-31T14:00:52;11.60;;;5.13;;
40599;SDS011;26309;50.924;4.754;2023-07-31T14:03:19;9.57;;;4.78;;
40599;SDS011;26309;50.924;4.754;2023-07-31T14:05:45;7.65;;;4.10;;
40599;SDS011;26309;50.924;4.754;2023-07-31T14:08:13;9.15;;;4.30;;
40599;SDS011;26309;50.924;4.754;2023-07-31T14:10:39;9.77;;;4.40;;
40599;SDS011;26309;50.924;4.754;2023-07-31T14:13:05;9.02;;;4.45;;
40599;SDS011;26309;50.924;4.754;2023-07-31T14:15:31;9.35;;;4.20;;
40599;SDS011;26309;50.924;4.754;2023-07-31T14:17:57;8.35;;;4.35;;
40599;SDS011;26309;50.924;4.754;2023-07-31T14:20:23;9.95;;;4.38;;
40599;SDS011;26309;50.924;4.754;2023-07-31T14:22:49;5.93;;;3.65;;
40599;SDS011;26309;50.924;4.754;2023-07-31T14:25:15;6.50;;;3.67;;
40599;SDS011;26309;50.924;4.754;2023-07-31T14:27:41;5.97;;;3.78;;
40599;SDS011;26309;50.924;4.754;2023-07-31T14:30:07;10.20;;;3.67;;
40599;SDS011;26309;50.924;4.754;2023-07-31T14:32:33;5.32;;;3.63;;
40599;SDS011;26309;50.924;4.754;2023-07-31T14:34:59;6.68;;;4.32;;
40599;SDS011;26309;50.924;4.754;2023-07-31T14:37:27;7.25;;;3.92;;
40599;SDS011;26309;50.924;4.754;2023-07-31T14:40:02;6.93;;;4.03;;
40599;SDS011;26309;50.924;4.754;2023-07-31T14:42:32;6.07;;;3.40;;
40599;SDS011;26309;50.924;4.754;2023-07-31T14:44:57;5.88;;;3.60;;
40599;SDS011;26309;50.924;4.754;2023-07-31T14:47:23;5.43;;;3.72;;
40599;SDS011;26309;50.924;4.754;2023-07-31T14:49:49;7.85;;;3.97;;
40599;SDS011;26309;50.924;4.754;2023-07-31T14:52:15;6.72;;;3.72;;
40599;SDS011;26309;50.924;4.754;2023-07-31T14:54:41;8.45;;;3.78;;
40599;SDS011;26309;50.924;4.754;2023-07-31T14:57:07;7.45;;;4.15;;
40599;SDS011;26309;50.924;4.754;2023-07-31T14:59:34;9.27;;;4.00;;
40599;SDS011;26309;50.924;4.754;2023-07-31T15:02:00;8.45;;;4.03;;
40599;SDS011;26309;50.924;4.754;2023-07-31T15:04:26;6.72;;;3.83;;
40599;SDS011;26309;50.924;4.754;2023-07-31T15:06:52;8.23;;;3.97;;
40599;SDS011;26309;50.924;4.754;2023-07-31T15:09:18;5.82;;;4.25;;
40599;SDS011;26309;50.924;4.754;2023-07-31T15:11:44;6.93;;;4.30;;
40599;SDS011;26309;50.924;4.754;2023-07-31T15:14:11;6.95;;;3.92;;
40599;SDS011;26309;50.924;4.754;2023-07-31T15:16:37;8.23;;;3.53;;
40599;SDS011;26309;50.924;4.754;2023-07-31T15:19:03;7.97;;;3.40;;
40599;SDS011;26309;50.924;4.754;2023-07-31T15:21:28;4.35;;;3.22;;
40599;SDS011;26309;50.924;4.754;2023-07-31T15:23:54;4.13;;;3.20;;
40599;SDS011;26309;50.924;4.754;2023-07-31T15:26:24;4.90;;;3.00;;
40599;SDS011;26309;50.924;4.754;2023-07-31T15:28:55;6.22;;;2.80;;
40599;SDS011;26309;50.924;4.754;2023-07-31T15:31:30;4.32;;;2.67;;
40599;SDS011;26309;50.924;4.754;2023-07-31T15:33:57;4.15;;;2.58;;
40599;SDS011;26309;50.924;4.754;2023-07-31T15:36:23;4.85;;;2.80;;
40599;SDS011;26309;50.924;4.754;2023-07-31T15:38:48;6.10;;;2.30;;
40599;SDS011;26309;50.924;4.754;2023-07-31T15:41:18;2.92;;;2.10;;
40599;SDS011;26309;50.924;4.754;2023-07-31T15:43:45;2.42;;;1.90;;
40599;SDS011;26309;50.924;4.754;2023-07-31T15:46:14;4.68;;;1.90;;
40599;SDS011;26309;50.924;4.754;2023-07-31T15:48:40;2.42;;;2.00;;
40599;SDS011;26309;50.924;4.754;2023-07-31T15:51:06;3.30;;;2.08;;
40599;SDS011;26309;50.924;4.754;2023-07-31T15:53:32;4.88;;;1.95;;
40599;SDS011;26309;50.924;4.754;2023-07-31T15:55:59;3.75;;;2.10;;
40599;SDS011;26309;50.924;4.754;2023-07-31T15:58:26;3.15;;;1.92;;
40599;SDS011;26309;50.924;4.754;2023-07-31T16:00:52;4.00;;;1.65;;
40599;SDS011;26309;50.924;4.754;2023-07-31T16:03:19;1.83;;;1.60;;
40599;SDS011;26309;50.924;4.754;2023-07-31T16:05:46;2.15;;;1.85;;
40599;SDS011;26309;50.924;4.754;2023-07-31T16:08:13;2.20;;;1.85;;
40599;SDS011;26309;50.924;4.754;2023-07-31T16:10:39;3.72;;;1.50;;
40599;SDS011;26309;50.924;4.754;2023-07-31T16:13:05;1.92;;;1.65;;
40599;SDS011;26309;50.924;4.754;2023-07-31T16:15:31;2.08;;;1.60;;
40599;SDS011;26309;50.924;4.754;2023-07-31T16:17:57;2.08;;;1.80;;
40599;SDS011;26309;50.924;4.754;2023-07-31T16:20:23;1.80;;;1.55;;
40599;SDS011;26309;50.924;4.754;2023-07-31T16:22:49;1.85;;;1.50;;
40599;SDS011;26309;50.924;4.754;2023-07-31T16:25:15;2.13;;;1.63;;
40599;SDS011;26309;50.924;4.754;2023-07-31T16:27:41;2.47;;;1.58;;
40599;SDS011;26309;50.924;4.754;2023-07-31T16:30:07;2.50;;;1.50;;
40599;SDS011;26309;50.924;4.754;2023-07-31T16:32:33;1.55;;;1.38;;
40599;SDS011;26309;50.924;4.754;2023-07-31T16:34:59;3.25;;;1.65;;
40599;SDS011;26309;50.924;4.754;2023-07-31T16:37:25;1.90;;;1.67;;
40599;SDS011;26309;50.924;4.754;2023-07-31T16:39:51;3.17;;;1.50;;
40599;SDS011;26309;50.924;4.754;2023-07-31T16:42:17;4.47;;;1.85;;
40599;SDS011;26309;50.924;4.754;2023-07-31T16:44:44;1.85;;;1.70;;
40599;SDS011;26309;50.924;4.754;2023-07-31T16:47:10;3.03;;;1.70;;
40599;SDS011;26309;50.924;4.754;2023-07-31T16:49:36;2.10;;;1.65;;
40599;SDS011;26309;50.924;4.754;2023-07-31T16:52:02;3.40;;;1.50;;
40599;SDS011;26309;50.924;4.754;2023-07-31T16:54:28;1.73;;;1.63;;
40599;SDS011;26309;50.924;4.754;2023-07-31T16:56:54;2.33;;;1.42;;
40599;SDS011;26309;50.924;4.754;2023-07-31T16:59:20;1.95;;;1.50;;
40599;SDS011;26309;50.924;4.754;2023-07-31T17:01:46;2.00;;;1.80;;
40599;SDS011;26309;50.924;4.754;2023-07-31T17:04:13;3.22;;;2.08;;
40599;SDS011;26309;50.924;4.754;2023-07-31T17:06:39;3.90;;;1.80;;
40599;SDS011;26309;50.924;4.754;2023-07-31T17:09:06;3.42;;;1.55;;
40599;SDS011;26309;50.924;4.754;2023-07-31T17:11:37;2.35;;;1.75;;
40599;SDS011;26309;50.924;4.754;2023-07-31T17:14:06;1.98;;;1.70;;
40599;SDS011;26309;50.924;4.754;2023-07-31T17:16:35;1.98;;;1.73;;
40599;SDS011;26309;50.924;4.754;2023-07-31T17:19:02;1.92;;;1.77;;
40599;SDS011;26309;50.924;4.754;2023-07-31T17:21:32;2.47;;;1.85;;
40599;SDS011;26309;50.924;4.754;2023-07-31T17:24:01;2.38;;;1.90;;
40599;SDS011;26309;50.924;4.754;2023-07-31T17:26:27;2.92;;;2.17;;
40599;SDS011;26309;50.924;4.754;2023-07-31T17:28:55;2.58;;;2.30;;
40599;SDS011;26309;50.924;4.754;2023-07-31T17:31:24;2.85;;;2.10;;
40599;SDS011;26309;50.924;4.754;2023-07-31T17:33:49;5.50;;;2.70;;
40599;SDS011;26309;50.924;4.754;2023-07-31T18:22:33;5.30;;;3.60;;
40599;SDS011;26309;50.924;4.754;2023-07-31T18:24:59;5.35;;;2.90;;
40599;SDS011;26309;50.924;4.754;2023-07-31T18:27:25;3.40;;;2.83;;
40599;SDS011;26309;50.924;4.754;2023-07-31T18:29:51;4.03;;;3.05;;
40599;SDS011;26309;50.924;4.754;2023-07-31T18:32:17;8.95;;;2.95;;
40599;SDS011;26309;50.924;4.754;2023-07-31T18:34:43;4.25;;;3.08;;
40599;SDS011;26309;50.924;4.754;2023-07-31T18:37:08;4.05;;;2.55;;
40599;SDS011;26309;50.924;4.754;2023-07-31T18:39:34;6.15;;;3.13;;
40599;SDS011;26309;50.924;4.754;2023-07-31T18:42:00;5.30;;;3.08;;
40599;SDS011;26309;50.924;4.754;2023-07-31T18:44:26;5.15;;;2.90;;
40599;SDS011;26309;50.924;4.754;2023-07-31T18:46:52;4.63;;;2.60;;
40599;SDS011;26309;50.924;4.754;2023-07-31T18:49:17;3.25;;;2.80;;
40599;SDS011;26309;50.924;4.754;2023-07-31T18:51:43;4.50;;;2.63;;
40599;SDS011;26309;50.924;4.754;2023-07-31T18:54:12;5.15;;;2.80;;
40599;SDS011;26309;50.924;4.754;2023-07-31T18:56:38;4.13;;;2.92;;
40599;SDS011;26309;50.924;4.754;2023-07-31T18:59:04;4.20;;;3.22;;
40599;SDS011;26309;50.924;4.754;2023-07-31T19:01:32;3.33;;;2.45;;
40599;SDS011;26309;50.924;4.754;2023-07-31T19:04:02;4.07;;;2.53;;
40599;SDS011;26309;50.924;4.754;2023-07-31T19:06:30;2.42;;;2.22;;
40599;SDS011;26309;50.924;4.754;2023-07-31T19:08:56;4.72;;;2.72;;
40599;SDS011;26309;50.924;4.754;2023-07-31T19:11:24;2.67;;;2.40;;
40599;SDS011;26309;50.924;4.754;2023-07-31T19:13:50;5.25;;;2.70;;
40599;SDS011;26309;50.924;4.754;2023-07-31T19:16:15;5.22;;;2.38;;
40599;SDS011;26309;50.924;4.754;2023-07-31T19:18:42;4.68;;;2.42;;
40599;SDS011;26309;50.924;4.754;2023-07-31T19:21:08;3.30;;;2.30;;
40599;SDS011;26309;50.924;4.754;2023-07-31T19:23:35;2.45;;;2.10;;
40599;SDS011;26309;50.924;4.754;2023-07-31T19:26:01;3.17;;;2.40;;
40599;SDS011;26309;50.924;4.754;2023-07-31T19:28:28;3.85;;;2.08;;
40599;SDS011;26309;50.924;4.754;2023-07-31T19:30:55;4.13;;;2.28;;
40599;SDS011;26309;50.924;4.754;2023-07-31T19:33:22;2.67;;;2.30;;
40599;SDS011;26309;50.924;4.754;2023-07-31T19:35:53;4.05;;;1.95;;
40599;SDS011;26309;50.924;4.754;2023-07-31T19:38:24;2.22;;;2.03;;
40599;SDS011;26309;50.924;4.754;2023-07-31T19:40:50;2.90;;;2.40;;
40599;SDS011;26309;50.924;4.754;2023-07-31T19:43:16;2.63;;;2.05;;
40599;SDS011;26309;50.924;4.754;2023-07-31T19:45:41;4.53;;;2.45;;
40599;SDS011;26309;50.924;4.754;2023-07-31T19:48:08;3.97;;;3.00;;
40599;SDS011;26309;50.924;4.754;2023-07-31T19:50:35;5.55;;;2.50;;
40599;SDS011;26309;50.924;4.754;2023-07-31T19:53:01;3.03;;;2.60;;
40599;SDS011;26309;50.924;4.754;2023-07-31T19:55:27;3.97;;;2.50;;
40599;SDS011;26309;50.924;4.754;2023-07-31T19:57:56;3.58;;;2.40;;
40599;SDS011;26309;50.924;4.754;2023-07-31T20:00:24;5.40;;;2.75;;
40599;SDS011;26309;50.924;4.754;2023-07-31T20:02:51;3.97;;;2.50;;
40599;SDS011;26309;50.924;4.754;2023-07-31T20:05:17;3.85;;;2.15;;
40599;SDS011;26309;50.924;4.754;2023-07-31T20:07:43;2.80;;;2.30;;
40599;SDS011;26309;50.924;4.754;2023-07-31T20:10:09;3.30;;;2.35;;
40599;SDS011;26309;50.924;4.754;2023-07-31T20:12:35;5.70;;;2.47;;
40599;SDS011;26309;50.924;4.754;2023-07-31T20:15:02;2.72;;;2.25;;
40599;SDS011;26309;50.924;4.754;2023-07-31T20:17:29;4.13;;;2.20;;
40599;SDS011;26309;50.924;4.754;2023-07-31T20:19:56;4.05;;;2.17;;
40599;SDS011;26309;50.924;4.754;2023-07-31T20:22:22;9.07;;;2.50;;
